Aviation Digital Data Service (ADDS)

Output produced by METARs form (1856 UTC 26 March 2017)
found at http://aviationweather.gov/adds/metars/
 
KAVL 261749Z 2618/2718 20009KT P6SM VCSH FEW025 BKN040 
     FM270000 17006KT P6SM VCSH BKN020 
     FM270300 17004KT P6SM BKN003 
     PROB30 2703/2705 4SM -SHRA 
     FM270600 VRB02KT 4SM -SHRA BKN003 
     FM270700 VRB02KT P6SM BKN003 
     PROB30 2712/2715 2SM -SHRA OVC003 
     FM271600 20006KT P6SM BKN050 
     PROB30 2716/2718 4SM -SHRA OVC025